Time;durP1;ratioP1;P1;durP2;ratioP2;P2;SDS_P1;SDS_P2;PMS_P1;PMS_P2;Temp;Humidity;BMP_temperature;BMP_pressure;BME280_temperature;BME280_humidity;BME280_pressure;Samples;Min_cycle;Max_cycle;Signal;HPM_P1;HPM_P2
2023/01/31 00:02:16;;;;;;;8.97;4.10;;;3.00;93.30;;;;;;5063854;28;20201;-87
2023/01/31 00:04:43;;;;;;;7.33;4.07;;;3.00;93.20;;;;;;5064861;28;21065;-87
2023/01/31 00:07:10;;;;;;;5.10;3.43;;;3.00;93.40;;;;;;5060132;28;20581;-88
2023/01/31 00:09:36;;;;;;;8.90;3.80;;;3.10;93.00;;;;;;5063634;28;20225;-87
2023/01/31 00:12:03;;;;;;;7.07;3.90;;;3.10;93.10;;;;;;5066841;28;20210;-88
2023/01/31 00:14:30;;;;;;;5.50;3.90;;;3.10;93.20;;;;;;5062639;28;20213;-87
2023/01/31 00:16:57;;;;;;;7.93;3.90;;;3.10;93.20;;;;;;5069203;28;20202;-88
2023/01/31 00:19:25;;;;;;;7.97;4.13;;;3.10;93.10;;;;;;5068413;28;21065;-88
2023/01/31 00:21:53;;;;;;;8.00;4.87;;;3.10;93.20;;;;;;5058953;28;20197;-87
2023/01/31 00:24:20;;;;;;;5.30;3.90;;;3.00;93.50;;;;;;5061049;28;20245;-87
2023/01/31 00:26:55;;;;;;;5.70;3.90;;;3.10;93.50;;;;;;5067637;28;20221;-87
2023/01/31 00:29:22;;;;;;;10.33;4.37;;;3.10;93.40;;;;;;5058330;28;20221;-87
2023/01/31 00:31:49;;;;;;;6.37;3.83;;;3.20;93.30;;;;;;5065854;28;20213;-88
2023/01/31 00:34:17;;;;;;;8.67;4.40;;;3.30;93.40;;;;;;5065299;28;20204;-87
2023/01/31 00:36:45;;;;;;;6.93;4.20;;;3.30;92.90;;;;;;5065627;28;20194;-87
2023/01/31 00:39:12;;;;;;;7.33;3.73;;;3.30;93.00;;;;;;5070651;28;20735;-88
2023/01/31 00:41:39;;;;;;;6.30;4.03;;;3.20;92.90;;;;;;5066220;28;20594;-87
2023/01/31 00:44:07;;;;;;;8.77;4.93;;;3.20;92.90;;;;;;5068560;28;20208;-87
2023/01/31 00:46:34;;;;;;;7.57;4.20;;;3.20;93.20;;;;;;5061730;28;20220;-87
2023/01/31 00:49:01;;;;;;;7.00;3.83;;;3.20;93.00;;;;;;5064028;28;20213;-87
2023/01/31 00:51:28;;;;;;;6.87;4.97;;;3.20;92.90;;;;;;5059980;28;20239;-87
2023/01/31 00:53:57;;;;;;;7.83;4.87;;;3.20;93.50;;;;;;5063445;28;20206;-87
2023/01/31 00:56:24;;;;;;;6.27;3.97;;;3.30;93.40;;;;;;5060013;28;20202;-87
2023/01/31 00:58:52;;;;;;;10.00;5.20;;;3.30;93.00;;;;;;5059880;28;20285;-87
2023/01/31 01:01:21;;;;;;;8.90;4.63;;;3.30;93.50;;;;;;5066369;28;20218;-88
2023/01/31 01:03:48;;;;;;;6.13;4.57;;;3.50;92.90;;;;;;5060926;28;20209;-87
2023/01/31 01:06:15;;;;;;;7.37;4.67;;;3.40;92.70;;;;;;5059556;28;20243;-87
2023/01/31 01:08:43;;;;;;;7.13;3.97;;;3.40;92.60;;;;;;5060641;28;20198;-87
2023/01/31 01:11:15;;;;;;;9.20;4.53;;;3.40;92.70;;;;;;5064162;28;20233;-87
2023/01/31 01:13:43;;;;;;;6.67;4.00;;;3.30;93.10;;;;;;5059573;28;20201;-89
2023/01/31 01:16:13;;;;;;;6.10;4.17;;;3.30;92.90;;;;;;5064205;28;20684;-88
2023/01/31 01:18:41;;;;;;;7.60;4.10;;;3.30;93.10;;;;;;5065217;28;20209;-89
2023/01/31 01:21:10;;;;;;;7.30;4.03;;;3.20;93.00;;;;;;5070779;28;20198;-89
2023/01/31 01:23:37;;;;;;;6.63;4.60;;;3.10;93.20;;;;;;5066210;28;20259;-88
2023/01/31 01:26:05;;;;;;;7.13;4.27;;;3.10;93.60;;;;;;5064168;28;20233;-88
2023/01/31 01:28:35;;;;;;;8.00;4.57;;;3.00;93.90;;;;;;5063888;28;20216;-89
2023/01/31 01:31:06;;;;;;;8.07;4.37;;;3.10;93.90;;;;;;5061556;28;20235;-88
2023/01/31 01:33:33;;;;;;;6.17;4.30;;;3.20;93.60;;;;;;5064423;28;20194;-88
2023/01/31 01:36:01;;;;;;;9.53;4.47;;;3.10;93.70;;;;;;5058726;28;20202;-90
2023/01/31 01:38:29;;;;;;;8.33;5.17;;;3.10;93.50;;;;;;5066740;28;20331;-88
2023/01/31 01:40:56;;;;;;;7.20;4.47;;;3.20;94.20;;;;;;5061836;28;20209;-87
2023/01/31 01:43:45;;;;;;;7.47;4.70;;;3.30;92.90;;;;;;5065111;28;20206;-88
2023/01/31 01:46:16;;;;;;;8.57;4.13;;;3.30;93.00;;;;;;5063421;28;20762;-90
2023/01/31 01:48:45;;;;;;;6.80;4.00;;;3.30;92.70;;;;;;5059231;28;20212;-89
2023/01/31 01:51:18;;;;;;;9.53;4.67;;;3.30;92.90;;;;;;5063713;28;20217;-89
2023/01/31 01:53:47;;;;;;;7.23;4.40;;;3.30;92.50;;;;;;5063831;28;20190;-88
2023/01/31 01:56:19;;;;;;;7.50;5.00;;;3.30;92.50;;;;;;5057514;28;20208;-88
2023/01/31 01:58:52;;;;;;;6.53;4.43;;;3.40;92.60;;;;;;5058921;28;20202;-88
2023/01/31 02:01:20;;;;;;;8.13;4.93;;;3.30;92.60;;;;;;5060381;28;20209;-88
2023/01/31 02:03:49;;;;;;;7.27;4.30;;;3.40;92.30;;;;;;5062640;28;20252;-89
2023/01/31 02:06:16;;;;;;;6.27;4.30;;;3.30;92.70;;;;;;5057628;28;20214;-89
2023/01/31 02:08:44;;;;;;;10.93;4.70;;;3.20;92.70;;;;;;5059627;28;20201;-88
2023/01/31 02:11:17;;;;;;;7.37;4.40;;;3.20;92.90;;;;;;5058584;28;20311;-89
2023/01/31 02:13:47;;;;;;;8.90;4.53;;;3.10;92.80;;;;;;5060083;28;20210;-88
2023/01/31 02:16:16;;;;;;;8.47;4.50;;;3.10;93.30;;;;;;5061145;28;20208;-88
2023/01/31 02:18:43;;;;;;;6.63;4.70;;;3.10;92.90;;;;;;5061310;28;20208;-88
2023/01/31 02:21:49;;;;;;;6.27;4.33;;;3.10;93.00;;;;;;5064670;28;20213;-88
2023/01/31 02:24:52;;;;;;;7.10;4.23;;;3.10;93.40;;;;;;5059997;28;20233;-88
2023/01/31 02:27:59;;;;;;;6.13;4.13;;;2.90;93.50;;;;;;5062082;28;20220;-88
2023/01/31 02:30:44;;;;;;;6.43;4.30;;;3.10;93.30;;;;;;5043914;28;20223;-88
2023/01/31 02:33:21;;;;;;;6.80;4.50;;;3.00;93.20;;;;;;5066021;28;20204;-87
2023/01/31 02:35:58;;;;;;;7.30;4.27;;;3.10;93.10;;;;;;5059874;28;20204;-88
2023/01/31 02:38:36;;;;;;;7.40;4.40;;;3.00;93.60;;;;;;5060530;28;20240;-87
2023/01/31 02:41:15;;;;;;;7.17;4.07;;;3.10;93.00;;;;;;5063670;28;20216;-88
2023/01/31 02:46:41;;;;;;;7.50;4.13;;;3.10;92.70;;;;;;5070034;28;20211;-89
2023/01/31 02:49:33;;;;;;;5.63;4.00;;;3.10;92.70;;;;;;5062827;28;20220;-87
2023/01/31 02:52:16;;;;;;;5.93;3.90;;;3.30;92.60;;;;;;5059759;28;20221;-87
2023/01/31 02:57:38;;;;;;;7.03;4.20;;;3.20;92.50;;;;;;5062464;28;20294;-87
2023/01/31 03:00:09;;;;;;;8.37;4.00;;;3.10;93.00;;;;;;5063787;28;20307;-87
2023/01/31 03:02:36;;;;;;;7.03;3.90;;;3.10;93.10;;;;;;5065061;28;20198;-87
2023/01/31 03:05:05;;;;;;;7.53;3.67;;;3.00;93.00;;;;;;5068301;28;20209;-88
2023/01/31 03:07:37;;;;;;;7.27;4.10;;;3.00;92.80;;;;;;5034979;28;20331;-88
2023/01/31 03:10:17;;;;;;;7.23;3.50;;;3.00;92.80;;;;;;5061621;28;20236;-87
2023/01/31 03:13:03;;;;;;;7.73;4.17;;;3.10;92.60;;;;;;5058389;28;20201;-88
2023/01/31 03:18:42;;;;;;;6.17;4.20;;;3.10;92.60;;;;;;5064020;28;20208;-88
2023/01/31 03:21:16;;;;;;;7.27;3.60;;;3.10;92.70;;;;;;5056750;28;20212;-87
2023/01/31 03:23:48;;;;;;;7.23;3.80;;;3.10;92.60;;;;;;5067605;28;20225;-88
2023/01/31 03:26:18;;;;;;;11.07;4.60;;;3.00;92.50;;;;;;5061745;28;20206;-87
2023/01/31 03:28:49;;;;;;;6.13;4.17;;;2.90;92.80;;;;;;5062372;28;20201;-87
2023/01/31 03:31:19;;;;;;;6.83;3.53;;;2.90;92.60;;;;;;5058391;28;20750;-87
2023/01/31 03:33:48;;;;;;;8.57;4.77;;;2.80;92.70;;;;;;5053823;28;20197;-88
2023/01/31 03:36:27;;;;;;;5.90;3.73;;;2.90;92.60;;;;;;5067499;28;20599;-86
2023/01/31 03:39:02;;;;;;;8.30;4.10;;;2.80;92.80;;;;;;5062311;28;20209;-87
2023/01/31 03:41:34;;;;;;;9.17;4.40;;;2.90;93.00;;;;;;5065314;28;20735;-88
2023/01/31 03:44:05;;;;;;;6.63;3.43;;;2.90;92.90;;;;;;5062174;28;20668;-88
2023/01/31 03:46:38;;;;;;;5.93;3.70;;;3.00;92.60;;;;;;5054187;28;20700;-88
2023/01/31 03:49:10;;;;;;;7.30;4.00;;;3.00;92.60;;;;;;5064040;28;20212;-87
2023/01/31 03:51:43;;;;;;;9.73;3.97;;;2.90;92.60;;;;;;5058591;28;20225;-87
2023/01/31 03:54:16;;;;;;;7.73;4.20;;;2.90;92.90;;;;;;5057600;28;20232;-87
2023/01/31 03:56:46;;;;;;;5.93;3.80;;;2.90;92.70;;;;;;5055150;28;20202;-87
2023/01/31 03:59:17;;;;;;;7.57;3.87;;;2.80;93.00;;;;;;5054235;28;20222;-87
2023/01/31 04:01:48;;;;;;;6.93;3.83;;;2.70;93.60;;;;;;5062034;28;20209;-87
2023/01/31 04:04:21;;;;;;;9.17;4.10;;;2.80;93.20;;;;;;5059787;28;20900;-88
2023/01/31 04:06:50;;;;;;;6.57;4.10;;;2.80;93.10;;;;;;5055362;28;20209;-87
2023/01/31 04:09:17;;;;;;;5.83;4.20;;;2.90;92.80;;;;;;5067747;28;20202;-87
2023/01/31 04:11:48;;;;;;;8.80;4.23;;;2.80;92.90;;;;;;5066795;28;20232;-88
2023/01/31 04:14:15;;;;;;;6.97;4.13;;;2.80;93.00;;;;;;5064306;28;20213;-87
2023/01/31 04:16:43;;;;;;;5.70;4.07;;;2.80;92.90;;;;;;5065083;28;20201;-88
2023/01/31 04:19:10;;;;;;;7.13;3.90;;;2.70;92.90;;;;;;5057324;28;20222;-87
2023/01/31 04:21:37;;;;;;;8.57;4.00;;;2.80;92.90;;;;;;5065000;28;20576;-88
2023/01/31 04:24:08;;;;;;;8.43;4.00;;;2.70;92.90;;;;;;5063023;28;20253;-87
2023/01/31 04:26:35;;;;;;;8.27;3.80;;;2.70;92.90;;;;;;5062984;28;20293;-88
2023/01/31 04:29:02;;;;;;;6.73;3.63;;;2.90;92.50;;;;;;5065031;28;20300;-87
2023/01/31 04:31:29;;;;;;;9.30;4.10;;;2.80;92.50;;;;;;5060173;28;20329;-88
2023/01/31 04:33:56;;;;;;;6.33;3.93;;;2.70;92.70;;;;;;5065453;28;20224;-88
2023/01/31 04:36:23;;;;;;;6.83;4.03;;;2.60;93.20;;;;;;5063339;28;20201;-88
2023/01/31 04:38:50;;;;;;;10.77;4.00;;;2.50;93.20;;;;;;5064795;28;20220;-87
2023/01/31 04:41:18;;;;;;;7.80;3.93;;;2.60;92.80;;;;;;5058729;28;20217;-87
2023/01/31 04:43:45;;;;;;;9.03;3.90;;;2.60;92.90;;;;;;5060319;28;20213;-88
2023/01/31 04:46:12;;;;;;;7.33;3.97;;;2.60;92.70;;;;;;5068301;28;20209;-88
2023/01/31 04:48:40;;;;;;;9.63;4.10;;;2.60;93.10;;;;;;5062467;28;20212;-87
2023/01/31 04:51:07;;;;;;;11.60;4.03;;;2.60;92.90;;;;;;5064035;28;20266;-88
2023/01/31 04:53:34;;;;;;;8.97;4.33;;;2.50;93.00;;;;;;5059707;28;20208;-88
2023/01/31 04:56:01;;;;;;;9.70;4.23;;;2.40;93.10;;;;;;5064437;28;20204;-87
2023/01/31 04:58:30;;;;;;;10.43;3.80;;;2.50;93.00;;;;;;5058378;28;20266;-89
2023/01/31 05:00:57;;;;;;;9.03;4.33;;;2.40;93.20;;;;;;5061838;28;20208;-87
2023/01/31 05:03:24;;;;;;;7.77;4.13;;;2.40;93.30;;;;;;5064119;28;20657;-88
2023/01/31 05:05:51;;;;;;;5.33;3.87;;;2.50;93.30;;;;;;5066265;28;20705;-88
2023/01/31 05:08:18;;;;;;;8.20;3.80;;;2.60;93.00;;;;;;5065025;28;20209;-88
2023/01/31 05:10:45;;;;;;;6.77;3.97;;;2.60;93.00;;;;;;5064705;28;20232;-88
2023/01/31 05:13:13;;;;;;;8.30;4.57;;;2.50;93.00;;;;;;5067352;28;20213;-88
2023/01/31 05:15:41;;;;;;;8.33;3.83;;;2.60;92.90;;;;;;5060643;28;20497;-88
2023/01/31 05:18:08;;;;;;;6.47;3.73;;;2.50;92.80;;;;;;5060183;28;20687;-87
2023/01/31 05:20:42;;;;;;;7.57;4.10;;;2.50;93.20;;;;;;5066908;28;20197;-87
2023/01/31 05:23:09;;;;;;;7.37;4.20;;;2.60;92.80;;;;;;5061258;28;20233;-87
2023/01/31 05:25:37;;;;;;;9.60;4.20;;;2.70;92.80;;;;;;5063759;28;20242;-87
2023/01/31 05:28:06;;;;;;;10.77;4.00;;;2.70;92.50;;;;;;5071636;28;20670;-87
2023/01/31 05:30:33;;;;;;;7.43;4.13;;;2.60;93.10;;;;;;5062693;28;20205;-87
2023/01/31 05:33:01;;;;;;;7.97;3.77;;;2.60;92.90;;;;;;5065233;28;20205;-88
2023/01/31 05:35:28;;;;;;;10.27;4.13;;;2.60;92.80;;;;;;5063590;28;20658;-88
2023/01/31 05:37:56;;;;;;;6.83;4.23;;;2.60;92.70;;;;;;5062827;28;20220;-87
2023/01/31 05:40:23;;;;;;;11.83;4.17;;;2.50;93.20;;;;;;5058409;28;20202;-88
2023/01/31 05:42:54;;;;;;;10.77;4.10;;;2.40;93.20;;;;;;5060660;28;20214;-87
2023/01/31 05:45:21;;;;;;;8.43;3.87;;;2.40;93.30;;;;;;5056203;28;20201;-88
2023/01/31 05:47:48;;;;;;;9.67;4.20;;;2.40;93.20;;;;;;5056901;28;20210;-87
2023/01/31 05:50:17;;;;;;;7.97;3.87;;;2.60;92.70;;;;;;5064174;28;20201;-87
2023/01/31 05:52:50;;;;;;;10.27;4.00;;;2.60;92.50;;;;;;5062708;28;20701;-87
2023/01/31 05:55:17;;;;;;;9.00;4.10;;;2.60;92.30;;;;;;5061488;28;20197;-85
2023/01/31 05:57:44;;;;;;;11.33;4.00;;;2.50;92.50;;;;;;5058434;28;20562;-87
2023/01/31 06:00:13;;;;;;;7.53;4.57;;;2.50;92.50;;;;;;5062775;28;20225;-87
2023/01/31 06:02:40;;;;;;;5.50;3.50;;;2.40;92.60;;;;;;5056739;28;20201;-86
2023/01/31 06:05:08;;;;;;;9.07;3.70;;;2.40;92.70;;;;;;5064136;28;20210;-84
2023/01/31 06:07:36;;;;;;;6.53;3.90;;;2.50;92.50;;;;;;5059021;28;20212;-87
2023/01/31 06:10:04;;;;;;;5.93;3.70;;;2.50;92.40;;;;;;5063877;28;20221;-88
2023/01/31 06:12:31;;;;;;;8.83;4.03;;;2.60;91.90;;;;;;5061375;28;20233;-85
2023/01/31 06:14:58;;;;;;;6.23;3.77;;;2.60;92.10;;;;;;5064378;28;20205;-86
2023/01/31 06:17:25;;;;;;;6.20;4.07;;;2.50;92.30;;;;;;5058593;28;20198;-90
2023/01/31 06:19:52;;;;;;;8.10;4.30;;;2.50;92.40;;;;;;5067743;28;20216;-86
2023/01/31 06:22:19;;;;;;;6.17;3.97;;;2.40;92.70;;;;;;5058863;28;20205;-89
2023/01/31 06:24:47;;;;;;;7.43;3.90;;;2.40;92.80;;;;;;5065097;28;20221;-89
2023/01/31 06:27:14;;;;;;;13.27;9.73;;;2.50;92.90;;;;;;5045871;28;20206;-87
2023/01/31 06:29:41;;;;;;;8.67;3.70;;;2.50;92.20;;;;;;5010397;28;20702;-87
2023/01/31 06:32:08;;;;;;;8.30;3.90;;;2.40;92.40;;;;;;5018293;28;20257;-86
2023/01/31 06:34:35;;;;;;;9.47;4.07;;;2.50;92.00;;;;;;5022233;28;20197;-89
2023/01/31 06:37:02;;;;;;;11.13;4.03;;;2.40;92.10;;;;;;5024070;28;20203;-91
2023/01/31 06:39:29;;;;;;;10.10;4.10;;;2.40;92.20;;;;;;5017345;28;20598;-90
2023/01/31 06:41:57;;;;;;;7.10;4.33;;;2.40;91.80;;;;;;5009118;28;20217;-90
2023/01/31 06:44:24;;;;;;;11.47;4.10;;;2.40;92.60;;;;;;5002921;28;20215;-89
2023/01/31 06:46:51;;;;;;;10.30;4.30;;;2.60;92.20;;;;;;5008390;28;20649;-90
2023/01/31 06:49:18;;;;;;;10.43;3.70;;;2.50;91.70;;;;;;5004067;28;20215;-90
2023/01/31 06:51:45;;;;;;;8.30;3.37;;;2.60;91.40;;;;;;5010036;28;20811;-90
2023/01/31 06:54:12;;;;;;;7.67;3.80;;;2.60;91.70;;;;;;5003921;28;20592;-90
2023/01/31 06:56:38;;;;;;;8.57;3.50;;;2.70;91.40;;;;;;5008716;28;20235;-90
2023/01/31 06:59:07;;;;;;;6.50;3.50;;;2.70;91.40;;;;;;5008690;28;20217;-89
2023/01/31 07:01:34;;;;;;;6.03;3.60;;;2.60;91.20;;;;;;5010297;28;20211;-91
2023/01/31 07:04:00;;;;;;;7.10;3.40;;;2.50;91.70;;;;;;5011425;28;20565;-91
2023/01/31 07:06:27;;;;;;;9.10;4.00;;;2.40;91.80;;;;;;5010707;28;20207;-90
2023/01/31 07:08:54;;;;;;;8.87;3.63;;;2.40;91.60;;;;;;5007617;28;20199;-91
2023/01/31 07:11:21;;;;;;;6.83;3.50;;;2.50;91.60;;;;;;5007708;28;20603;-90
2023/01/31 07:13:49;;;;;;;7.37;3.23;;;2.50;91.40;;;;;;5011329;28;20211;-91
2023/01/31 07:16:18;;;;;;;7.60;3.70;;;2.50;91.10;;;;;;5013841;28;20215;-90
2023/01/31 07:18:45;;;;;;;4.93;3.47;;;2.60;90.80;;;;;;5013551;28;20298;-91
2023/01/31 07:21:12;;;;;;;9.97;4.03;;;2.60;90.90;;;;;;5014649;28;20216;-91
2023/01/31 07:23:39;;;;;;;10.93;4.13;;;2.60;91.10;;;;;;5018044;28;20229;-89
2023/01/31 07:26:06;;;;;;;10.10;3.87;;;2.50;91.30;;;;;;5025336;28;20262;-90
2023/01/31 07:28:33;;;;;;;7.17;3.70;;;2.50;91.80;;;;;;5021634;28;20218;-90
2023/01/31 07:31:05;;;;;;;8.27;3.90;;;2.60;91.20;;;;;;5017931;28;20607;-91
2023/01/31 07:33:34;;;;;;;9.17;4.00;;;2.60;90.70;;;;;;5016255;28;20267;-90
2023/01/31 07:36:03;;;;;;;11.50;4.00;;;2.70;91.20;;;;;;5002525;28;20207;-91
2023/01/31 07:38:30;;;;;;;17.97;9.57;;;2.70;90.70;;;;;;5009539;28;20192;-91
2023/01/31 07:41:00;;;;;;;24.87;12.83;;;2.70;90.90;;;;;;5008265;28;20204;-91
2023/01/31 07:43:27;;;;;;;14.03;7.73;;;2.70;90.50;;;;;;5011713;28;20845;-90
2023/01/31 07:45:55;;;;;;;9.70;3.93;;;2.90;90.40;;;;;;5015707;28;21511;-91
2023/01/31 07:48:22;;;;;;;12.40;6.47;;;2.90;90.10;;;;;;5010977;28;20212;-90
2023/01/31 07:50:51;;;;;;;10.77;4.70;;;2.80;90.60;;;;;;5014519;28;20208;-91
2023/01/31 07:53:18;;;;;;;8.37;3.43;;;2.90;90.30;;;;;;5016576;28;21064;-91
2023/01/31 07:55:46;;;;;;;12.53;5.13;;;3.00;90.30;;;;;;5020761;28;20199;-91
2023/01/31 07:58:14;;;;;;;6.53;3.43;;;3.40;88.90;;;;;;5012287;28;20298;-90
2023/01/31 08:03:34;;;;;;;34.90;17.57;;;3.70;85.20;;;;;;5021490;28;20218;-90
2023/01/31 08:06:04;;;;;;;8.53;3.87;;;3.50;85.20;;;;;;5035839;28;20191;-89
2023/01/31 08:08:31;;;;;;;14.07;6.77;;;3.40;85.70;;;;;;5021934;28;20211;-91
2023/01/31 08:10:58;;;;;;;9.60;5.80;;;3.50;86.00;;;;;;5017826;28;20219;-91
2023/01/31 08:13:26;;;;;;;7.50;4.00;;;3.50;85.00;;;;;;5011082;28;20227;-90
2023/01/31 08:15:53;;;;;;;8.03;3.83;;;3.30;84.30;;;;;;5013353;28;20257;-91
2023/01/31 08:18:20;;;;;;;9.70;3.83;;;3.20;86.40;;;;;;5007329;28;20199;-91
2023/01/31 08:20:47;;;;;;;8.87;3.73;;;3.20;86.20;;;;;;4990741;28;20274;-91
2023/01/31 08:23:15;;;;;;;10.30;3.80;;;3.10;87.80;;;;;;5018022;28;20207;-90
2023/01/31 08:25:42;;;;;;;12.23;3.90;;;3.10;87.80;;;;;;4994600;28;20242;-90
2023/01/31 08:28:09;;;;;;;7.63;3.50;;;3.20;87.90;;;;;;5013896;28;20210;-92
2023/01/31 08:30:39;;;;;;;9.57;3.77;;;3.30;86.90;;;;;;5019530;28;20554;-90
2023/01/31 08:33:06;;;;;;;7.43;3.53;;;3.20;86.10;;;;;;5008570;28;20239;-90
2023/01/31 08:35:33;;;;;;;7.47;3.93;;;3.20;87.50;;;;;;5011323;28;20222;-90
2023/01/31 08:38:00;;;;;;;17.80;10.37;;;3.20;87.10;;;;;;5004615;28;20204;-90
2023/01/31 08:40:28;;;;;;;9.47;3.50;;;3.40;85.10;;;;;;5015438;28;20211;-91
2023/01/31 08:42:56;;;;;;;23.27;14.30;;;3.60;84.90;;;;;;5012326;28;20555;-91
2023/01/31 08:45:23;;;;;;;17.07;8.40;;;3.60;84.70;;;;;;5028207;28;20210;-89
2023/01/31 08:47:54;;;;;;;7.37;3.20;;;3.80;83.80;;;;;;5023972;28;20215;-91
2023/01/31 08:50:21;;;;;;;11.87;4.87;;;3.90;82.00;;;;;;5012265;28;20207;-91
2023/01/31 08:52:51;;;;;;;8.10;3.60;;;3.90;81.30;;;;;;5010656;28;20258;-90
2023/01/31 08:55:18;;;;;;;12.07;4.03;;;3.90;81.90;;;;;;5009330;28;20203;-90
2023/01/31 08:57:47;;;;;;;8.03;3.27;;;4.10;80.70;;;;;;5011915;28;20211;-91
2023/01/31 09:00:15;;;;;;;8.20;3.23;;;4.20;79.60;;;;;;5009516;28;20298;-91
2023/01/31 09:02:42;;;;;;;6.37;3.23;;;4.30;77.90;;;;;;4991946;28;20690;-90
2023/01/31 09:05:09;;;;;;;5.80;3.30;;;4.40;78.70;;;;;;5004664;28;20216;-91
2023/01/31 09:07:36;;;;;;;6.83;3.17;;;4.60;73.40;;;;;;5008374;28;20207;-95
2023/01/31 09:10:04;;;;;;;8.13;3.20;;;4.90;73.20;;;;;;5014375;28;20219;-94
2023/01/31 09:12:31;;;;;;;7.95;3.10;;;5.50;62.50;;;;;;5007287;28;20231;-94
2023/01/31 09:14:59;;;;;;;7.65;3.17;;;6.00;55.70;;;;;;5013735;28;20199;-93
2023/01/31 09:17:26;;;;;;;8.55;3.83;;;6.30;47.40;;;;;;5010248;28;20215;-94
2023/01/31 09:19:53;;;;;;;8.68;3.00;;;6.50;48.60;;;;;;5005704;28;20203;-93
2023/01/31 09:22:21;;;;;;;9.70;3.40;;;6.90;41.10;;;;;;5014714;28;20214;-93
2023/01/31 09:24:50;;;;;;;6.55;2.90;;;7.10;39.50;;;;;;4989812;28;20253;-93
2023/01/31 09:30:01;;;;;;;8.43;2.75;;;8.00;32.70;;;;;;4988763;28;20206;-94
2023/01/31 09:35:10;;;;;;;8.85;3.00;;;8.30;31.10;;;;;;5015730;28;20206;-94
2023/01/31 09:37:38;;;;;;;8.93;3.67;;;8.00;31.00;;;;;;5014374;28;20206;-92
2023/01/31 09:43:12;;;;;;;11.70;2.63;;;8.30;30.60;;;;;;4974747;28;20222;-93
2023/01/31 09:54:05;;;;;;;7.45;3.25;;;8.20;29.00;;;;;;4989480;28;20236;-94
2023/01/31 10:11:47;;;;;;;6.97;3.00;;;7.60;32.20;;;;;;4955484;28;20216;-93
2023/01/31 10:14:24;;;;;;;12.30;3.50;;;7.90;30.00;;;;;;4961998;28;20240;-93
2023/01/31 10:34:17;;;;;;;8.23;2.60;;;6.10;33.10;;;;;;5005985;28;20234;-94
2023/01/31 10:36:49;;;;;;;13.77;2.83;;;5.70;35.80;;;;;;5005500;28;20208;-92
2023/01/31 10:39:22;;;;;;;15.02;2.50;;;5.40;38.60;;;;;;5010481;28;20213;-93
2023/01/31 10:42:05;;;;;;;10.63;3.30;;;5.40;41.70;;;;;;4988816;28;20211;-91
2023/01/31 10:44:43;;;;;;;9.93;2.80;;;5.30;44.60;;;;;;5009188;28;20206;-90
2023/01/31 10:47:14;;;;;;;7.37;2.83;;;5.10;44.40;;;;;;5009677;28;20219;-90
2023/01/31 10:49:42;;;;;;;7.10;2.63;;;5.00;45.40;;;;;;5000520;28;20246;-90
2023/01/31 10:52:27;;;;;;;12.60;3.10;;;5.00;46.90;;;;;;5017790;28;20211;-92
2023/01/31 10:55:04;;;;;;;7.00;2.80;;;5.00;48.40;;;;;;4978531;28;21289;-91
2023/01/31 10:57:32;;;;;;;8.50;2.83;;;5.00;50.60;;;;;;5013210;28;20321;-91
2023/01/31 10:59:59;;;;;;;8.50;3.00;;;5.10;50.20;;;;;;5014205;28;20222;-92
2023/01/31 11:02:28;;;;;;;8.70;2.90;;;5.00;51.70;;;;;;5008784;28;20207;-91
2023/01/31 11:04:57;;;;;;;5.27;2.53;;;5.00;53.10;;;;;;5012306;28;20681;-90
2023/01/31 11:07:28;;;;;;;7.17;2.80;;;4.90;52.20;;;;;;5015393;28;20202;-91
2023/01/31 11:09:57;;;;;;;6.50;2.70;;;4.80;54.60;;;;;;5007630;28;20218;-91
2023/01/31 11:12:41;;;;;;;10.40;2.73;;;4.70;55.30;;;;;;4987664;28;20204;-90
2023/01/31 11:15:16;;;;;;;12.33;3.03;;;4.80;58.00;;;;;;5008915;28;20207;-92
2023/01/31 11:17:45;;;;;;;6.10;2.47;;;4.80;59.10;;;;;;5010867;28;20233;-91
2023/01/31 11:20:24;;;;;;;6.10;2.63;;;4.80;55.90;;;;;;5006232;28;20208;-91
2023/01/31 11:22:54;;;;;;;5.70;2.67;;;4.90;56.90;;;;;;5014579;28;20208;-91
2023/01/31 11:25:23;;;;;;;11.97;2.80;;;4.80;58.40;;;;;;5013421;28;20281;-90
2023/01/31 11:27:53;;;;;;;8.13;3.17;;;4.70;59.90;;;;;;5027460;28;20201;-90
2023/01/31 11:30:26;;;;;;;8.57;2.80;;;4.70;60.40;;;;;;5019056;28;20199;-90
2023/01/31 11:32:53;;;;;;;10.23;3.30;;;4.50;60.50;;;;;;5020963;28;20223;-90
2023/01/31 11:35:27;;;;;;;6.37;3.07;;;4.50;64.00;;;;;;5010113;28;20212;-92
2023/01/31 11:37:58;;;;;;;7.40;3.30;;;4.50;63.60;;;;;;4991854;28;20207;-91
2023/01/31 11:40:31;;;;;;;8.63;3.17;;;4.60;67.40;;;;;;5012416;28;20226;-91
2023/01/31 11:43:00;;;;;;;6.60;2.83;;;4.60;69.30;;;;;;5012529;28;20759;-90
2023/01/31 11:45:30;;;;;;;6.57;3.00;;;4.60;66.40;;;;;;5015797;28;20196;-91
2023/01/31 11:47:59;;;;;;;4.83;2.90;;;4.70;67.70;;;;;;5007972;28;20214;-91
2023/01/31 11:50:32;;;;;;;7.90;3.47;;;4.60;66.30;;;;;;5015810;28;20203;-91
2023/01/31 11:53:03;;;;;;;8.37;3.33;;;4.70;69.50;;;;;;5003132;28;20277;-90
2023/01/31 11:55:38;;;;;;;8.90;3.80;;;4.70;69.40;;;;;;5005446;28;20207;-91
2023/01/31 11:58:16;;;;;;;7.30;3.53;;;4.80;64.70;;;;;;5007893;28;20211;-91
2023/01/31 12:00:52;;;;;;;6.10;3.27;;;4.80;67.00;;;;;;5007542;28;20203;-89
2023/01/31 12:03:19;;;;;;;8.57;3.73;;;4.80;69.50;;;;;;4991808;28;20575;-92
2023/01/31 12:05:50;;;;;;;9.20;3.53;;;4.80;67.90;;;;;;5007817;28;20212;-91
2023/01/31 12:08:31;;;;;;;7.53;3.33;;;5.00;68.00;;;;;;5005794;28;20211;-91
2023/01/31 12:10:59;;;;;;;9.63;3.30;;;5.10;69.80;;;;;;5007948;28;20718;-92
2023/01/31 12:13:27;;;;;;;6.00;3.20;;;5.20;63.50;;;;;;5007241;28;20219;-93
2023/01/31 12:15:58;;;;;;;7.23;2.90;;;5.10;60.60;;;;;;5374834;23;20245;-90
2023/01/31 12:18:42;;;;;;;4.13;3.00;;;5.20;60.40;;;;;;5028364;28;20207;-91
2023/01/31 12:21:15;;;;;;;9.40;3.40;;;5.20;62.10;;;;;;5029303;28;20213;-90
2023/01/31 12:23:54;;;;;;;7.33;3.53;;;5.20;57.30;;;;;;5026677;28;20219;-91
2023/01/31 12:26:32;;;;;;;5.93;3.47;;;5.20;59.20;;;;;;5025393;28;20206;-93
2023/01/31 12:29:18;;;;;;;8.57;3.03;;;5.40;58.10;;;;;;5030508;28;20209;-93
2023/01/31 12:31:57;;;;;;;5.67;3.10;;;5.30;58.40;;;;;;5031778;28;20229;-91
2023/01/31 12:34:57;;;;;;;6.00;3.80;;;5.30;58.20;;;;;;5029594;28;20237;-91
2023/01/31 12:37:36;;;;;;;8.70;3.67;;;5.20;58.20;;;;;;5028175;28;20293;-91
2023/01/31 12:40:20;;;;;;;5.97;3.60;;;5.20;60.90;;;;;;5030198;28;20218;-91
2023/01/31 12:42:57;;;;;;;7.53;3.80;;;5.20;60.30;;;;;;5024129;28;20245;-91
2023/01/31 12:45:52;;;;;;;5.10;3.80;;;5.30;61.30;;;;;;5029870;28;20210;-91
2023/01/31 12:48:48;;;;;;;8.70;3.90;;;5.20;58.80;;;;;;5022312;28;20215;-90
2023/01/31 12:51:29;;;;;;;9.47;4.20;;;5.20;58.30;;;;;;5026481;28;20210;-89
2023/01/31 12:54:09;;;;;;;9.57;4.10;;;5.10;58.80;;;;;;5024277;28;20242;-92
2023/01/31 12:57:01;;;;;;;9.20;3.97;;;5.00;62.90;;;;;;5028569;28;20212;-91
2023/01/31 12:59:46;;;;;;;7.07;4.03;;;4.90;64.70;;;;;;5028485;28;20199;-90
2023/01/31 13:02:27;;;;;;;7.77;4.20;;;4.90;66.70;;;;;;5023128;28;20203;-90
2023/01/31 13:04:59;;;;;;;11.30;3.97;;;4.80;69.60;;;;;;5026119;28;20218;-90
2023/01/31 13:07:32;;;;;;;7.83;4.47;;;4.80;69.50;;;;;;5026386;28;20206;-92
2023/01/31 13:10:03;;;;;;;9.47;4.07;;;5.10;69.80;;;;;;5028274;28;20210;-92
2023/01/31 13:12:35;;;;;;;6.20;4.60;;;5.20;69.30;;;;;;5029091;28;20650;-92
2023/01/31 13:15:06;;;;;;;8.47;4.10;;;5.30;61.20;;;;;;5027921;28;20225;-92
2023/01/31 13:17:38;;;;;;;9.50;4.23;;;5.40;63.10;;;;;;5027614;28;20590;-92
2023/01/31 13:20:21;;;;;;;6.10;4.33;;;5.50;62.30;;;;;;5030525;28;20198;-91
2023/01/31 13:22:53;;;;;;;10.00;4.90;;;5.60;59.80;;;;;;5044836;28;20208;-91
2023/01/31 13:25:24;;;;;;;5.23;4.23;;;5.80;60.50;;;;;;5035711;28;20599;-92
2023/01/31 13:27:59;;;;;;;6.57;4.35;;;5.80;57.60;;;;;;5031380;28;20210;-93
2023/01/31 13:30:34;;;;;;;5.05;3.92;;;5.90;58.20;;;;;;5025831;28;20206;-92
2023/01/31 13:33:08;;;;;;;9.27;4.73;;;5.90;58.00;;;;;;5028150;28;20209;-92
2023/01/31 13:35:40;;;;;;;5.97;4.05;;;5.90;56.40;;;;;;5027519;28;20577;-93
2023/01/31 13:38:14;;;;;;;5.78;4.10;;;5.80;55.70;;;;;;5010695;28;20217;-93
2023/01/31 13:40:47;;;;;;;5.53;4.40;;;5.60;56.60;;;;;;5030704;28;20207;-89
2023/01/31 13:43:16;;;;;;;9.03;4.70;;;5.50;56.50;;;;;;5026412;28;20218;-89
2023/01/31 13:45:55;;;;;;;6.83;4.43;;;5.40;59.00;;;;;;5029689;28;20253;-90
2023/01/31 13:48:29;;;;;;;6.80;4.40;;;5.30;59.50;;;;;;5030278;28;20217;-89
2023/01/31 13:51:01;;;;;;;10.30;5.03;;;5.20;58.40;;;;;;5029130;28;20554;-89
2023/01/31 13:53:31;;;;;;;7.87;4.77;;;5.10;59.00;;;;;;5030866;28;20701;-89
2023/01/31 13:55:58;;;;;;;7.60;4.23;;;5.20;57.80;;;;;;5030161;28;20226;-90
2023/01/31 13:58:30;;;;;;;6.20;4.43;;;5.20;59.20;;;;;;5030600;28;20207;-90
2023/01/31 14:01:02;;;;;;;7.93;4.43;;;5.10;59.70;;;;;;5028743;28;20206;-90
2023/01/31 14:03:29;;;;;;;7.00;4.60;;;5.10;60.00;;;;;;5028571;28;20203;-90
2023/01/31 14:05:59;;;;;;;7.20;4.73;;;5.00;60.80;;;;;;5007929;28;20682;-90
2023/01/31 14:08:31;;;;;;;6.63;4.80;;;4.90;61.90;;;;;;5029209;28;20337;-90
2023/01/31 14:11:00;;;;;;;8.90;5.33;;;4.80;65.80;;;;;;5028034;28;20237;-90
2023/01/31 14:13:39;;;;;;;7.87;4.73;;;4.80;66.30;;;;;;5027199;28;20706;-90
2023/01/31 14:16:37;;;;;;;6.63;4.90;;;4.70;66.90;;;;;;5021592;28;20615;-88